Time;durP1;ratioP1;P1;durP2;ratioP2;P2;SDS_P1;SDS_P2;PMS_P1;PMS_P2;Temp;Humidity;BMP_temperature;BMP_pressure;BME280_temperature;BME280_humidity;BME280_pressure;Samples;Min_cycle;Max_cycle;Signal;HPM_P1;HPM_P2
2023/02/08 00:00:30;;;;;;;2.15;0.50;;;;;;;;;;5074243;28;20052;-69
2023/02/08 00:02:58;;;;;;;0.30;0.30;;;;;;;;;;5075191;28;20045;-68
2023/02/08 00:05:27;;;;;;;0.68;0.68;;;;;;;;;;5079355;28;20119;-71
2023/02/08 00:07:55;;;;;;;0.40;0.40;;;;;;;;;;5073515;28;20056;-71
2023/02/08 00:10:24;;;;;;;1.00;1.00;;;;;;;;;;5082713;28;20048;-69
2023/02/08 00:12:52;;;;;;;0.30;0.30;;;;;;;;;;5070589;28;20045;-70
2023/02/08 00:15:21;;;;;;;1.40;1.15;;;;;;;;;;5073562;28;20044;-68
2023/02/08 00:17:51;;;;;;;0.30;0.30;;;;;;;;;;5080101;28;20048;-69
2023/02/08 00:20:20;;;;;;;0.30;0.30;;;;;;;;;;5072856;28;20049;-67
2023/02/08 00:22:49;;;;;;;0.40;0.40;;;;;;;;;;5082735;28;20409;-68
2023/02/08 00:25:19;;;;;;;0.30;0.30;;;;;;;;;;5079610;28;20119;-70
2023/02/08 00:27:48;;;;;;;0.65;0.65;;;;;;;;;;5075593;28;20037;-70
2023/02/08 00:30:16;;;;;;;0.60;0.60;;;;;;;;;;5079164;28;20041;-69
2023/02/08 00:32:45;;;;;;;0.80;0.80;;;;;;;;;;5078867;28;20055;-69
2023/02/08 00:35:15;;;;;;;0.40;0.40;;;;;;;;;;5080349;28;20048;-69
2023/02/08 00:37:43;;;;;;;0.40;0.40;;;;;;;;;;5079659;28;20058;-68
2023/02/08 00:40:12;;;;;;;0.50;0.50;;;;;;;;;;5079167;28;20055;-69
2023/02/08 00:42:40;;;;;;;0.98;0.90;;;;;;;;;;5068834;28;20044;-69
2023/02/08 00:45:09;;;;;;;0.95;0.95;;;;;;;;;;5077386;28;20061;-68
2023/02/08 00:47:38;;;;;;;3.35;1.23;;;;;;;;;;5086714;28;20097;-68
2023/02/08 00:50:07;;;;;;;0.40;0.40;;;;;;;;;;5080066;28;20493;-68
2023/02/08 00:52:37;;;;;;;0.75;0.75;;;;;;;;;;5074864;28;20076;-68
2023/02/08 00:55:06;;;;;;;0.32;0.32;;;;;;;;;;5079183;28;20572;-68
2023/02/08 00:57:35;;;;;;;4.63;1.13;;;;;;;;;;5072235;28;20138;-69
2023/02/08 01:00:04;;;;;;;0.30;0.30;;;;;;;;;;5077160;28;20052;-69
2023/02/08 01:02:33;;;;;;;0.30;0.30;;;;;;;;;;5072960;28;20166;-68
2023/02/08 01:05:02;;;;;;;2.17;2.08;;;;;;;;;;5082572;28;20055;-69
2023/02/08 01:07:30;;;;;;;0.55;0.55;;;;;;;;;;5075804;28;20492;-68
2023/02/08 01:10:00;;;;;;;1.15;0.98;;;;;;;;;;5080490;28;20040;-71
2023/02/08 01:12:28;;;;;;;0.45;0.45;;;;;;;;;;5079152;28;20064;-68
2023/02/08 01:14:57;;;;;;;0.60;0.60;;;;;;;;;;5071833;28;20044;-68
2023/02/08 01:17:25;;;;;;;4.78;1.13;;;;;;;;;;5075404;28;20456;-68
2023/02/08 01:19:54;;;;;;;0.50;0.50;;;;;;;;;;5087376;28;20052;-70
2023/02/08 01:22:22;;;;;;;0.40;0.40;;;;;;;;;;5073057;28;20051;-69
2023/02/08 01:24:51;;;;;;;0.70;0.65;;;;;;;;;;5087300;28;20048;-68
2023/02/08 01:27:20;;;;;;;0.30;0.30;;;;;;;;;;5073955;28;20044;-69
2023/02/08 01:29:49;;;;;;;0.60;0.60;;;;;;;;;;5068558;28;20048;-68
2023/02/08 01:32:17;;;;;;;0.80;0.80;;;;;;;;;;5070616;28;20052;-69
2023/02/08 01:34:46;;;;;;;0.30;0.30;;;;;;;;;;5080575;28;20056;-68
2023/02/08 01:37:15;;;;;;;0.32;0.32;;;;;;;;;;5076583;28;20044;-69
2023/02/08 01:39:43;;;;;;;1.15;0.93;;;;;;;;;;5079195;28;20040;-69
2023/02/08 01:42:13;;;;;;;3.10;1.15;;;;;;;;;;5073760;28;20047;-69
2023/02/08 01:45:01;;;;;;;1.30;1.30;;;;;;;;;;5082829;28;20092;-69
2023/02/08 01:47:31;;;;;;;0.30;0.30;;;;;;;;;;5077898;28;20044;-69
2023/02/08 01:49:59;;;;;;;0.30;0.30;;;;;;;;;;5082746;28;20535;-69
2023/02/08 01:52:29;;;;;;;2.30;1.15;;;;;;;;;;5077857;28;20055;-70
2023/02/08 01:55:00;;;;;;;0.50;0.50;;;;;;;;;;5073262;28;20058;-70
2023/02/08 01:57:29;;;;;;;0.40;0.40;;;;;;;;;;5070448;28;20565;-70
2023/02/08 01:59:59;;;;;;;0.60;0.60;;;;;;;;;;5067588;28;20126;-69
2023/02/08 02:02:27;;;;;;;0.57;0.57;;;;;;;;;;5071975;28;20045;-70
2023/02/08 02:04:57;;;;;;;0.50;0.50;;;;;;;;;;5071616;28;20048;-70
2023/02/08 02:07:27;;;;;;;0.70;0.70;;;;;;;;;;5077301;28;20044;-69
2023/02/08 02:09:58;;;;;;;0.30;0.30;;;;;;;;;;5069403;28;20048;-69
2023/02/08 02:12:27;;;;;;;0.65;0.65;;;;;;;;;;5064078;28;20044;-69
2023/02/08 02:14:56;;;;;;;0.75;0.47;;;;;;;;;;5061857;28;20041;-69
2023/02/08 02:17:25;;;;;;;1.15;1.15;;;;;;;;;;5068649;28;20055;-69
2023/02/08 02:19:58;;;;;;;0.70;0.70;;;;;;;;;;5068598;28;20040;-69
2023/02/08 02:22:40;;;;;;;0.38;0.38;;;;;;;;;;5071349;28;20115;-69
2023/02/08 02:25:30;;;;;;;0.63;0.63;;;;;;;;;;5071922;28;20048;-69
2023/02/08 02:28:11;;;;;;;0.28;0.28;;;;;;;;;;5063104;28;20048;-69
2023/02/08 02:30:49;;;;;;;0.98;0.98;;;;;;;;;;5071120;28;20036;-69
2023/02/08 02:33:28;;;;;;;0.80;0.80;;;;;;;;;;5071372;28;20045;-70
2023/02/08 02:35:59;;;;;;;0.30;0.30;;;;;;;;;;5069671;28;20537;-70
2023/02/08 02:38:34;;;;;;;1.55;1.17;;;;;;;;;;5068134;28;20036;-69
2023/02/08 02:41:06;;;;;;;0.98;0.80;;;;;;;;;;5068869;28;20052;-69
2023/02/08 02:43:40;;;;;;;0.40;0.40;;;;;;;;;;5067343;28;20048;-69
2023/02/08 02:46:13;;;;;;;0.50;0.50;;;;;;;;;;5069956;28;20048;-69
2023/02/08 02:48:47;;;;;;;1.25;1.25;;;;;;;;;;5081584;28;20387;-69
2023/02/08 02:51:18;;;;;;;1.20;1.13;;;;;;;;;;5076519;28;20051;-69
2023/02/08 02:53:49;;;;;;;0.40;0.40;;;;;;;;;;5071141;28;20295;-69
2023/02/08 02:56:19;;;;;;;0.40;0.40;;;;;;;;;;5076165;28;20040;-69
2023/02/08 02:58:47;;;;;;;1.27;1.17;;;;;;;;;;5066565;28;20040;-69
2023/02/08 03:01:24;;;;;;;0.30;0.30;;;;;;;;;;5073022;28;20495;-70
2023/02/08 03:03:55;;;;;;;0.70;0.70;;;;;;;;;;5069697;28;20048;-69
2023/02/08 03:06:30;;;;;;;0.77;0.77;;;;;;;;;;5078503;28;20491;-69
2023/02/08 03:09:09;;;;;;;0.68;0.63;;;;;;;;;;5078280;28;20059;-69
2023/02/08 03:11:38;;;;;;;0.40;0.40;;;;;;;;;;5070593;28;20045;-70
2023/02/08 03:14:16;;;;;;;0.60;0.60;;;;;;;;;;5073085;28;20534;-69
2023/02/08 03:16:54;;;;;;;0.90;0.80;;;;;;;;;;5073227;28;20040;-69
2023/02/08 03:19:28;;;;;;;0.40;0.40;;;;;;;;;;5043707;28;20060;-69
2023/02/08 03:22:03;;;;;;;1.38;1.35;;;;;;;;;;5078107;28;20045;-70
2023/02/08 03:24:36;;;;;;;0.50;0.50;;;;;;;;;;5082597;28;20056;-69
2023/02/08 03:27:06;;;;;;;0.20;0.20;;;;;;;;;;5068420;28;20055;-69
2023/02/08 03:29:40;;;;;;;1.10;1.05;;;;;;;;;;5071405;28;20481;-69
2023/02/08 03:32:10;;;;;;;1.15;0.55;;;;;;;;;;5077389;28;20048;-69
2023/02/08 03:34:44;;;;;;;2.00;1.65;;;;;;;;;;5069853;28;20045;-69
2023/02/08 03:37:15;;;;;;;0.40;0.40;;;;;;;;;;5077480;28;22292;-69
2023/02/08 03:39:45;;;;;;;0.40;0.40;;;;;;;;;;5068107;28;20044;-70
2023/02/08 03:42:15;;;;;;;0.50;0.50;;;;;;;;;;5077938;28;20044;-69
2023/02/08 03:44:47;;;;;;;0.38;0.38;;;;;;;;;;5066878;28;20037;-70
2023/02/08 03:47:18;;;;;;;0.40;0.40;;;;;;;;;;5075047;28;20045;-69
2023/02/08 03:49:50;;;;;;;0.30;0.30;;;;;;;;;;5075523;28;20041;-69
2023/02/08 03:52:19;;;;;;;30.67;1.38;;;;;;;;;;5080791;28;20044;-70
2023/02/08 03:54:51;;;;;;;0.50;0.50;;;;;;;;;;5069587;28;20037;-70
2023/02/08 03:57:21;;;;;;;1.55;1.50;;;;;;;;;;5078055;28;20483;-69
2023/02/08 03:59:53;;;;;;;0.80;0.80;;;;;;;;;;5063045;28;20040;-69
2023/02/08 04:02:22;;;;;;;0.30;0.30;;;;;;;;;;5075350;28;20047;-69
2023/02/08 04:04:53;;;;;;;0.47;0.47;;;;;;;;;;5074668;28;20051;-70
2023/02/08 04:07:21;;;;;;;0.80;0.60;;;;;;;;;;5070688;28;20059;-69
2023/02/08 04:09:49;;;;;;;0.63;0.63;;;;;;;;;;5085406;28;20055;-70
2023/02/08 04:12:17;;;;;;;0.43;0.43;;;;;;;;;;5082332;28;20423;-69
2023/02/08 04:14:46;;;;;;;0.43;0.43;;;;;;;;;;5068932;28;20041;-69
2023/02/08 04:17:14;;;;;;;0.40;0.40;;;;;;;;;;5075139;28;20044;-69
2023/02/08 04:19:42;;;;;;;1.00;0.57;;;;;;;;;;5079127;28;20047;-69
2023/02/08 04:22:12;;;;;;;3.00;1.23;;;;;;;;;;5081361;28;20055;-69
2023/02/08 04:24:40;;;;;;;0.30;0.30;;;;;;;;;;5088060;28;20040;-69
2023/02/08 04:27:08;;;;;;;0.82;0.82;;;;;;;;;;5079062;28;20051;-68
2023/02/08 04:29:37;;;;;;;0.40;0.40;;;;;;;;;;5077098;28;20419;-69
2023/02/08 04:32:10;;;;;;;0.63;0.63;;;;;;;;;;5078743;28;20392;-69
2023/02/08 04:34:38;;;;;;;0.30;0.30;;;;;;;;;;5075793;28;20094;-70
2023/02/08 04:37:07;;;;;;;0.60;0.60;;;;;;;;;;5073821;28;20055;-69
2023/02/08 04:39:36;;;;;;;0.45;0.45;;;;;;;;;;5085196;28;20047;-69
2023/02/08 04:42:05;;;;;;;0.30;0.30;;;;;;;;;;5078852;28;20469;-69
2023/02/08 04:44:33;;;;;;;0.90;0.60;;;;;;;;;;5089408;28;20043;-70
2023/02/08 04:47:01;;;;;;;0.35;0.35;;;;;;;;;;5073794;28;20392;-68
2023/02/08 04:49:29;;;;;;;2.95;1.25;;;;;;;;;;5076224;28;20044;-68
2023/02/08 04:51:58;;;;;;;0.57;0.57;;;;;;;;;;5071394;28;20044;-68
2023/02/08 04:54:26;;;;;;;0.40;0.40;;;;;;;;;;5076032;28;20040;-69
2023/02/08 04:56:55;;;;;;;1.05;1.05;;;;;;;;;;5070604;28;20063;-68
2023/02/08 04:59:24;;;;;;;0.30;0.30;;;;;;;;;;5079849;28;20388;-68
2023/02/08 05:01:52;;;;;;;0.40;0.40;;;;;;;;;;5077386;28;20043;-69
2023/02/08 05:04:20;;;;;;;0.70;0.70;;;;;;;;;;5075496;28;20489;-69
2023/02/08 05:06:48;;;;;;;0.40;0.40;;;;;;;;;;5080209;28;20046;-68
2023/02/08 05:09:17;;;;;;;0.45;0.45;;;;;;;;;;5078107;28;20044;-69
2023/02/08 05:11:45;;;;;;;0.40;0.40;;;;;;;;;;5077356;28;20036;-68
2023/02/08 05:14:15;;;;;;;2.65;0.70;;;;;;;;;;5076208;28;20044;-68
2023/02/08 05:16:43;;;;;;;1.65;1.05;;;;;;;;;;5075374;28;20047;-69
2023/02/08 05:19:11;;;;;;;0.70;0.70;;;;;;;;;;5071131;28;20040;-69
2023/02/08 05:21:40;;;;;;;0.90;0.90;;;;;;;;;;5068170;28;20041;-69
2023/02/08 05:24:11;;;;;;;0.47;0.47;;;;;;;;;;5085321;28;20044;-69
2023/02/08 05:26:39;;;;;;;0.55;0.55;;;;;;;;;;5072174;28;20345;-69
2023/02/08 05:29:07;;;;;;;3.13;0.93;;;;;;;;;;5078693;28;20051;-69
2023/02/08 05:31:37;;;;;;;0.70;0.70;;;;;;;;;;5076567;28;20055;-69
2023/02/08 05:34:05;;;;;;;0.32;0.32;;;;;;;;;;5067679;28;20131;-69
2023/02/08 05:36:34;;;;;;;0.30;0.30;;;;;;;;;;5068439;28;20037;-69
2023/02/08 05:39:02;;;;;;;0.60;0.60;;;;;;;;;;5062091;28;20044;-69
2023/02/08 05:41:30;;;;;;;0.60;0.60;;;;;;;;;;5069297;28;20051;-69
2023/02/08 05:43:58;;;;;;;0.40;0.40;;;;;;;;;;5071299;28;20061;-69
2023/02/08 05:46:26;;;;;;;2.58;1.65;;;;;;;;;;5068180;28;20044;-69
2023/02/08 05:48:57;;;;;;;0.35;0.35;;;;;;;;;;5065577;28;20043;-69
2023/02/08 05:51:25;;;;;;;0.60;0.60;;;;;;;;;;5068541;28;20481;-69
2023/02/08 05:53:55;;;;;;;0.60;0.60;;;;;;;;;;5058260;28;20057;-69
2023/02/08 05:56:23;;;;;;;0.30;0.30;;;;;;;;;;5064876;28;20037;-69
2023/02/08 05:58:51;;;;;;;0.70;0.70;;;;;;;;;;5062152;28;20362;-69
2023/02/08 06:01:20;;;;;;;0.52;0.52;;;;;;;;;;5076754;28;20603;-69
2023/02/08 06:03:48;;;;;;;0.50;0.50;;;;;;;;;;5075145;28;20136;-69
2023/02/08 06:06:18;;;;;;;1.58;1.48;;;;;;;;;;5074525;28;20052;-69
2023/02/08 06:08:47;;;;;;;0.52;0.52;;;;;;;;;;5058737;28;20079;-69
2023/02/08 06:11:15;;;;;;;2.30;1.23;;;;;;;;;;5070391;28;20063;-69
2023/02/08 06:13:44;;;;;;;0.88;0.88;;;;;;;;;;5062711;28;20040;-68
2023/02/08 06:16:13;;;;;;;0.65;0.65;;;;;;;;;;5069490;28;20051;-68
2023/02/08 06:18:41;;;;;;;0.88;0.85;;;;;;;;;;5071599;28;20044;-68
2023/02/08 06:21:11;;;;;;;0.45;0.45;;;;;;;;;;5066691;28;20059;-69
2023/02/08 06:23:41;;;;;;;1.02;0.68;;;;;;;;;;5057920;28;20567;-68
2023/02/08 06:26:09;;;;;;;4.20;1.33;;;;;;;;;;5063123;28;20132;-73
2023/02/08 06:28:37;;;;;;;0.40;0.40;;;;;;;;;;5068862;28;20040;-79
2023/02/08 06:31:06;;;;;;;0.30;0.30;;;;;;;;;;5071754;28;20040;-78
2023/02/08 06:33:34;;;;;;;0.40;0.40;;;;;;;;;;5073162;28;20040;-76
2023/02/08 06:36:02;;;;;;;0.30;0.30;;;;;;;;;;5074279;28;20045;-79
2023/02/08 06:38:31;;;;;;;0.40;0.40;;;;;;;;;;5070906;28;20075;-78
2023/02/08 06:41:00;;;;;;;0.70;0.70;;;;;;;;;;5059795;28;20453;-77
2023/02/08 06:43:28;;;;;;;0.35;0.35;;;;;;;;;;5063963;28;20052;-80
2023/02/08 06:45:57;;;;;;;0.60;0.60;;;;;;;;;;5064236;28;20037;-80
2023/02/08 06:48:25;;;;;;;0.93;0.93;;;;;;;;;;5072139;28;20059;-79
2023/02/08 06:50:54;;;;;;;0.57;0.57;;;;;;;;;;5066223;28;20068;-79
2023/02/08 06:53:22;;;;;;;0.60;0.60;;;;;;;;;;5061996;28;20056;-80
2023/02/08 06:55:51;;;;;;;0.40;0.40;;;;;;;;;;5073263;28;20517;-78
2023/02/08 06:58:21;;;;;;;0.40;0.40;;;;;;;;;;5070161;28;20063;-78
2023/02/08 07:00:49;;;;;;;0.32;0.32;;;;;;;;;;5071402;28;20074;-78
2023/02/08 07:03:17;;;;;;;0.47;0.47;;;;;;;;;;5072606;28;20036;-80
2023/02/08 07:05:46;;;;;;;7.03;1.20;;;;;;;;;;5070987;28;20049;-78
2023/02/08 07:08:31;;;;;;;0.77;0.77;;;;;;;;;;5078329;28;20072;-75
2023/02/08 07:11:00;;;;;;;1.70;1.60;;;;;;;;;;5062275;28;20051;-77
2023/02/08 07:13:29;;;;;;;1.58;0.85;;;;;;;;;;5071069;28;20048;-77
2023/02/08 07:15:58;;;;;;;1.10;0.80;;;;;;;;;;5074153;28;20057;-80
2023/02/08 07:18:26;;;;;;;0.80;0.80;;;;;;;;;;5070666;28;20040;-78
2023/02/08 07:20:54;;;;;;;1.13;1.13;;;;;;;;;;5064452;28;20049;-78
2023/02/08 07:23:22;;;;;;;1.48;1.38;;;;;;;;;;5071308;28;20390;-78
2023/02/08 07:25:57;;;;;;;1.77;1.67;;;;;;;;;;5068648;28;20075;-77
2023/02/08 07:28:25;;;;;;;;;;;;;;;;;;5068125;28;20044;-75
2023/02/08 07:30:55;;;;;;;0.50;0.50;;;;;;;;;;5066836;28;20339;-77
2023/02/08 07:33:24;;;;;;;0.52;0.52;;;;;;;;;;5057221;28;20071;-77
2023/02/08 07:35:53;;;;;;;0.80;0.65;;;;;;;;;;5072924;28;20105;-78
2023/02/08 07:38:21;;;;;;;3.75;1.95;;;;;;;;;;5076660;28;20043;-77
2023/02/08 07:40:49;;;;;;;0.35;0.35;;;;;;;;;;5076613;28;20041;-77
2023/02/08 07:43:18;;;;;;;1.25;1.15;;;;;;;;;;5073069;28;20574;-75
2023/02/08 07:45:46;;;;;;;0.30;0.30;;;;;;;;;;5073510;28;20036;-78
2023/02/08 07:48:16;;;;;;;1.48;1.38;;;;;;;;;;5069618;28;20049;-77
2023/02/08 07:50:44;;;;;;;1.05;1.00;;;;;;;;;;5073165;28;20056;-76
2023/02/08 07:53:12;;;;;;;0.93;0.93;;;;;;;;;;5074707;28;20412;-77
2023/02/08 07:55:41;;;;;;;0.90;0.90;;;;;;;;;;5074147;28;20136;-77
2023/02/08 07:58:09;;;;;;;0.40;0.40;;;;;;;;;;5067565;28;20040;-77
2023/02/08 08:00:37;;;;;;;0.82;0.82;;;;;;;;;;5075102;28;20400;-72
2023/02/08 08:03:06;;;;;;;0.40;0.40;;;;;;;;;;5066561;28;20048;-78
2023/02/08 08:05:36;;;;;;;0.88;0.88;;;;;;;;;;5075730;28;20173;-77
2023/02/08 08:08:04;;;;;;;0.85;0.85;;;;;;;;;;5074102;28;20048;-79
2023/02/08 08:10:33;;;;;;;2.40;0.88;;;;;;;;;;5074481;28;20041;-79
2023/02/08 08:13:01;;;;;;;0.47;0.45;;;;;;;;;;5074111;28;20128;-78
2023/02/08 08:15:29;;;;;;;0.40;0.40;;;;;;;;;;5071064;28;20155;-76
2023/02/08 08:17:58;;;;;;;0.40;0.40;;;;;;;;;;5078206;28;20473;-78
2023/02/08 08:20:26;;;;;;;1.08;0.73;;;;;;;;;;5073631;28;20047;-79
2023/02/08 08:22:56;;;;;;;0.40;0.40;;;;;;;;;;5074197;28;20075;-79
2023/02/08 08:25:25;;;;;;;0.68;0.68;;;;;;;;;;5075571;28;20083;-79
2023/02/08 08:27:54;;;;;;;0.80;0.80;;;;;;;;;;5076345;28;20079;-78
2023/02/08 08:30:22;;;;;;;0.30;0.30;;;;;;;;;;5075846;28;20131;-79
2023/02/08 08:32:51;;;;;;;2.60;2.00;;;;;;;;;;5076169;28;20044;-78
2023/02/08 08:35:19;;;;;;;1.23;0.82;;;;;;;;;;5081024;28;20048;-79
2023/02/08 08:37:47;;;;;;;0.32;0.32;;;;;;;;;;5074970;28;20527;-76
2023/02/08 08:40:17;;;;;;;0.30;0.30;;;;;;;;;;5078251;28;20048;-78
2023/02/08 08:42:46;;;;;;;0.55;0.55;;;;;;;;;;5063302;28;20128;-78
2023/02/08 08:45:14;;;;;;;0.88;0.75;;;;;;;;;;5074248;28;20129;-79
2023/02/08 08:47:43;;;;;;;0.93;0.93;;;;;;;;;;5076798;28;20131;-77
2023/02/08 08:50:11;;;;;;;1.58;1.48;;;;;;;;;;5082030;28;20076;-80
2023/02/08 08:52:41;;;;;;;1.75;1.65;;;;;;;;;;5080170;28;20522;-80
2023/02/08 08:55:09;;;;;;;0.57;0.57;;;;;;;;;;5072357;28;20116;-77
2023/02/08 08:57:39;;;;;;;0.45;0.45;;;;;;;;;;5074204;28;20044;-77
2023/02/08 09:00:08;;;;;;;0.30;0.30;;;;;;;;;;5071825;28;20405;-78
2023/02/08 09:02:36;;;;;;;1.58;0.88;;;;;;;;;;5074788;28;20091;-79
2023/02/08 09:05:06;;;;;;;0.30;0.30;;;;;;;;;;5080780;28;20044;-77
2023/02/08 09:07:35;;;;;;;0.47;0.47;;;;;;;;;;5070887;28;20036;-77
2023/02/08 09:10:04;;;;;;;1.25;0.95;;;;;;;;;;5071312;28;20094;-76
2023/02/08 09:12:32;;;;;;;1.05;1.05;;;;;;;;;;5073443;28;20077;-79
2023/02/08 09:15:02;;;;;;;0.75;0.75;;;;;;;;;;5072302;28;20076;-77
2023/02/08 09:17:30;;;;;;;0.80;0.80;;;;;;;;;;5068993;28;20044;-75
2023/02/08 09:19:58;;;;;;;2.13;1.40;;;;;;;;;;5074854;28;20036;-80
2023/02/08 09:22:27;;;;;;;2.60;0.68;;;;;;;;;;5070671;28;20041;-79
2023/02/08 09:24:55;;;;;;;4.03;0.98;;;;;;;;;;5075322;28;20059;-77
2023/02/08 09:27:23;;;;;;;0.68;0.68;;;;;;;;;;5071612;28;20056;-79
2023/02/08 09:29:51;;;;;;;0.93;0.93;;;;;;;;;;5072714;28;20057;-74
2023/02/08 09:32:21;;;;;;;1.20;1.10;;;;;;;;;;5072859;28;20044;-78
2023/02/08 09:34:50;;;;;;;3.20;1.08;;;;;;;;;;5072886;28;20138;-78
2023/02/08 09:37:18;;;;;;;1.60;1.40;;;;;;;;;;5070539;28;20054;-80
2023/02/08 09:39:46;;;;;;;3.05;0.88;;;;;;;;;;5071690;28;20079;-79
2023/02/08 09:42:21;;;;;;;0.90;0.90;;;;;;;;;;5069349;28;20076;-78
2023/02/08 09:44:49;;;;;;;;;;;;;;;;;;5066740;28;20052;-79
2023/02/08 09:47:19;;;;;;;1.20;1.17;;;;;;;;;;5072122;28;19921;-79
2023/02/08 09:49:54;;;;;;;1.48;1.33;;;;;;;;;;5069593;28;20044;-78
2023/02/08 09:52:28;;;;;;;1.00;1.00;;;;;;;;;;5062889;28;20424;-80
2023/02/08 09:54:59;;;;;;;0.55;0.55;;;;;;;;;;5070334;28;20048;-77
2023/02/08 09:57:30;;;;;;;3.25;1.15;;;;;;;;;;5070894;28;20036;-80
2023/02/08 10:00:01;;;;;;;2.65;1.75;;;;;;;;;;5066284;28;20051;-78
2023/02/08 10:02:30;;;;;;;1.58;1.40;;;;;;;;;;5071572;28;20489;-77
2023/02/08 10:05:02;;;;;;;2.63;1.42;;;;;;;;;;5073732;28;20464;-80
2023/02/08 10:07:31;;;;;;;0.68;0.68;;;;;;;;;;5070958;28;20084;-79
2023/02/08 10:10:01;;;;;;;0.65;0.50;;;;;;;;;;5070134;28;20044;-78
2023/02/08 10:12:38;;;;;;;4.10;2.45;;;;;;;;;;5069123;28;20049;-76
2023/02/08 10:15:12;;;;;;;5.78;1.05;;;;;;;;;;5063106;28;20040;-78
2023/02/08 10:17:47;;;;;;;1.52;1.42;;;;;;;;;;5066912;28;20074;-76
2023/02/08 10:20:25;;;;;;;1.42;1.33;;;;;;;;;;5072059;28;20072;-80
2023/02/08 10:23:00;;;;;;;1.23;1.10;;;;;;;;;;5074686;28;20055;-77
2023/02/08 10:25:35;;;;;;;0.77;0.77;;;;;;;;;;5080261;28;20036;-79
2023/02/08 10:28:14;;;;;;;1.17;0.95;;;;;;;;;;5075180;28;20040;-76
2023/02/08 10:30:47;;;;;;;3.75;2.50;;;;;;;;;;5080000;28;20036;-80
2023/02/08 10:33:18;;;;;;;5.65;1.92;;;;;;;;;;5081254;28;20043;-77
2023/02/08 10:35:49;;;;;;;8.45;1.05;;;;;;;;;;5079389;28;20037;-78
2023/02/08 10:38:23;;;;;;;1.95;1.05;;;;;;;;;;5070486;28;20083;-79
2023/02/08 10:40:54;;;;;;;2.25;1.40;;;;;;;;;;5067958;28;20044;-81
2023/02/08 10:43:27;;;;;;;3.47;3.03;;;;;;;;;;5067087;28;20048;-76
2023/02/08 10:45:59;;;;;;;4.88;1.52;;;;;;;;;;5069532;28;20460;-79
2023/02/08 10:48:32;;;;;;;6.45;2.92;;;;;;;;;;5070237;28;20040;-78
2023/02/08 10:51:02;;;;;;;0.50;0.50;;;;;;;;;;5076092;28;20062;-78
2023/02/08 10:53:31;;;;;;;8.35;1.17;;;;;;;;;;5070595;28;20046;-80
2023/02/08 10:55:59;;;;;;;1.10;1.05;;;;;;;;;;5078851;28;20070;-78
2023/02/08 10:58:28;;;;;;;0.20;0.20;;;;;;;;;;5070853;28;20047;-78
2023/02/08 11:00:57;;;;;;;1.08;1.05;;;;;;;;;;5071139;28;20388;-80
2023/02/08 11:03:26;;;;;;;1.52;1.42;;;;;;;;;;5071845;28;20043;-78
2023/02/08 11:05:55;;;;;;;0.63;0.63;;;;;;;;;;5071825;28;20076;-80
2023/02/08 11:08:26;;;;;;;0.52;0.52;;;;;;;;;;5070359;28;20124;-77
2023/02/08 11:10:59;;;;;;;2.10;1.98;;;;;;;;;;5071660;28;20040;-76
2023/02/08 11:13:32;;;;;;;3.10;1.90;;;;;;;;;;5068385;28;20088;-78
2023/02/08 11:16:05;;;;;;;1.10;1.10;;;;;;;;;;5070534;28;20044;-80
2023/02/08 11:18:35;;;;;;;3.40;2.67;;;;;;;;;;5073919;28;20063;-78
2023/02/08 11:21:04;;;;;;;2.05;1.83;;;;;;;;;;5076310;28;20123;-79
2023/02/08 11:23:35;;;;;;;4.15;1.98;;;;;;;;;;5079150;28;20051;-77
2023/02/08 11:26:15;;;;;;;1.40;1.15;;;;;;;;;;5073232;28;20470;-79
2023/02/08 11:28:44;;;;;;;1.55;0.82;;;;;;;;;;5070950;28;20131;-78
2023/02/08 11:31:17;;;;;;;3.50;2.63;;;;;;;;;;5066772;28;20044;-78
2023/02/08 11:34:08;;;;;;;5.53;1.88;;;;;;;;;;5069476;28;20552;-77
2023/02/08 11:36:37;;;;;;;1.60;1.42;;;;;;;;;;5066112;28;20476;-76
2023/02/08 11:39:16;;;;;;;1.00;1.00;;;;;;;;;;5065859;28;20396;-77
2023/02/08 11:41:45;;;;;;;9.90;1.65;;;;;;;;;;5070089;28;20048;-78
2023/02/08 11:44:17;;;;;;;6.25;1.33;;;;;;;;;;5075507;28;20052;-80
2023/02/08 11:46:47;;;;;;;0.80;0.73;;;;;;;;;;5080881;28;20070;-80
2023/02/08 11:49:21;;;;;;;4.10;1.50;;;;;;;;;;5084074;28;20041;-79
2023/02/08 11:51:51;;;;;;;10.17;2.27;;;;;;;;;;5078931;28;20469;-79
2023/02/08 11:54:39;;;;;;;2.05;1.95;;;;;;;;;;5071382;28;20051;-79
2023/02/08 11:57:15;;;;;;;1.75;1.23;;;;;;;;;;5073924;28;20064;-80
2023/02/08 11:59:44;;;;;;;3.22;2.60;;;;;;;;;;5072943;28;20049;-80
2023/02/08 12:02:32;;;;;;;5.43;1.98;;;;;;;;;;5073471;28;20040;-78
2023/02/08 12:05:00;;;;;;;3.00;1.77;;;;;;;;;;5076723;28;20044;-79
2023/02/08 12:07:44;;;;;;;1.63;1.52;;;;;;;;;;5072964;28;20036;-79
2023/02/08 12:10:27;;;;;;;1.48;1.00;;;;;;;;;;5074279;28;20046;-78
2023/02/08 12:13:03;;;;;;;3.20;2.92;;;;;;;;;;5058700;28;20041;-80
2023/02/08 12:15:38;;;;;;;1.83;1.08;;;;;;;;;;5071139;28;20040;-80
2023/02/08 12:18:32;;;;;;;1.00;1.00;;;;;;;;;;5062499;28;20086;-80
2023/02/08 12:21:05;;;;;;;3.28;1.77;;;;;;;;;;5068876;28;20075;-78
2023/02/08 12:23:45;;;;;;;4.90;3.03;;;;;;;;;;5070543;28;20516;-82
2023/02/08 12:26:19;;;;;;;0.90;0.90;;;;;;;;;;5075550;28;20067;-80
2023/02/08 12:29:03;;;;;;;0.47;0.47;;;;;;;;;;5075099;28;20055;-77
2023/02/08 12:31:40;;;;;;;5.78;1.63;;;;;;;;;;5077708;28;20079;-77
2023/02/08 12:34:11;;;;;;;0.50;0.50;;;;;;;;;;5072421;28;20055;-77
2023/02/08 12:40:48;;;;;;;4.55;3.92;;;;;;;;;;5068221;28;20480;-81
2023/02/08 12:42:49;;;;;;;1.90;1.35;;;;;;;;;;5074658;28;20055;-82
2023/02/08 12:45:27;;;;;;;3.20;1.30;;;;;;;;;;5072612;28;20120;-83
2023/02/08 12:48:04;;;;;;;5.07;1.60;;;;;;;;;;5072941;28;20056;-82
2023/02/08 12:50:38;;;;;;;1.10;0.95;;;;;;;;;;5072804;28;20053;-84
2023/02/08 12:53:13;;;;;;;2.13;1.05;;;;;;;;;;5073737;28;20080;-76
2023/02/08 12:55:43;;;;;;;9.73;1.90;;;;;;;;;;5072438;28;20082;-81
2023/02/08 12:58:23;;;;;;;4.97;1.88;;;;;;;;;;5071611;28;20075;-82
2023/02/08 13:00:52;;;;;;;6.43;1.85;;;;;;;;;;5070977;28;20465;-83
2023/02/08 13:03:25;;;;;;;3.90;2.15;;;;;;;;;;5064317;28;20219;-81
2023/02/08 13:05:54;;;;;;;0.98;0.98;;;;;;;;;;5067312;28;20094;-80
2023/02/08 13:08:32;;;;;;;1.80;1.70;;;;;;;;;;5069779;28;20055;-79
2023/02/08 13:11:01;;;;;;;9.48;3.72;;;;;;;;;;5070221;28;20102;-80
2023/02/08 13:13:51;;;;;;;2.10;1.27;;;;;;;;;;5063040;28;20128;-79
2023/02/08 13:16:22;;;;;;;3.65;2.13;;;;;;;;;;5065806;28;20128;-78
2023/02/08 13:18:53;;;;;;;2.17;1.42;;;;;;;;;;5068105;28;20091;-78
2023/02/08 13:21:24;;;;;;;2.72;1.65;;;;;;;;;;5073739;28;20037;-81
2023/02/08 13:23:53;;;;;;;2.95;2.35;;;;;;;;;;5077633;28;20078;-78
2023/02/08 13:26:25;;;;;;;3.83;1.90;;;;;;;;;;5072239;28;20048;-80
2023/02/08 13:28:56;;;;;;;3.33;2.38;;;;;;;;;;5069843;28;20497;-76
2023/02/08 13:31:29;;;;;;;3.20;1.85;;;;;;;;;;5066498;28;20098;-77
2023/02/08 13:34:00;;;;;;;1.05;0.93;;;;;;;;;;5077168;28;20083;-80
2023/02/08 13:36:30;;;;;;;1.42;1.35;;;;;;;;;;5063102;28;20040;-79
2023/02/08 13:38:59;;;;;;;1.13;1.13;;;;;;;;;;5068498;28;20072;-76
2023/02/08 13:41:28;;;;;;;1.35;1.05;;;;;;;;;;5060351;28;20072;-77
2023/02/08 13:43:59;;;;;;;10.82;3.38;;;;;;;;;;5071627;28;20520;-76
2023/02/08 13:46:29;;;;;;;4.30;1.05;;;;;;;;;;5066746;28;20408;-78
2023/02/08 13:48:59;;;;;;;1.58;1.20;;;;;;;;;;5065762;28;20044;-78
2023/02/08 13:52:01;;;;;;;4.25;1.48;;;;;;;;;;5070605;28;20064;-78
2023/02/08 13:54:30;;;;;;;5.43;1.20;;;;;;;;;;5065136;28;20072;-76
2023/02/08 13:56:59;;;;;;;2.60;2.40;;;;;;;;;;5066843;28;20118;-77
2023/02/08 13:59:34;;;;;;;7.22;1.45;;;;;;;;;;5069075;28;20492;-77
2023/02/08 14:02:22;;;;;;;9.05;2.78;;;;;;;;;;5069132;28;20485;-81
2023/02/08 14:04:51;;;;;;;5.68;3.40;;;;;;;;;;5067816;28;20059;-77
2023/02/08 14:07:25;;;;;;;2.95;1.65;;;;;;;;;;5077162;28;20047;-75
2023/02/08 14:10:03;;;;;;;2.80;1.80;;;;;;;;;;5064129;28;20052;-79
2023/02/08 14:12:35;;;;;;;1.40;1.08;;;;;;;;;;5079587;28;21448;-77
2023/02/08 14:15:24;;;;;;;6.82;2.05;;;;;;;;;;5075253;28;20051;-80
2023/02/08 14:17:54;;;;;;;2.47;1.60;;;;;;;;;;5072880;28;20043;-80
2023/02/08 14:20:27;;;;;;;2.30;2.10;;;;;;;;;;5078171;28;20140;-79
2023/02/08 14:22:57;;;;;;;5.70;2.03;;;;;;;;;;5079673;28;20045;-75
2023/02/08 14:25:26;;;;;;;1.50;0.63;;;;;;;;;;5069932;28;20049;-82
2023/02/08 14:27:56;;;;;;;3.05;1.83;;;;;;;;;;5072232;28;20502;-82
2023/02/08 14:30:27;;;;;;;4.32;1.52;;;;;;;;;;5074980;28;20425;-77
2023/02/08 14:33:11;;;;;;;2.47;1.88;;;;;;;;;;5076812;28;20462;-81
2023/02/08 14:35:41;;;;;;;8.80;1.80;;;;;;;;;;5076077;28;20489;-83
2023/02/08 14:38:29;;;;;;;3.58;1.48;;;;;;;;;;5065576;28;20758;-76
2023/02/08 14:40:58;;;;;;;8.55;2.25;;;;;;;;;;5067725;28;20419;-78
2023/02/08 14:43:31;;;;;;;2.25;2.05;;;;;;;;;;5062533;28;20053;-81
2023/02/08 14:46:20;;;;;;;6.07;0.57;;;;;;;;;;5070087;28;20586;-81
2023/02/08 14:48:50;;;;;;;5.15;1.90;;;;;;;;;;5070657;28;20150;-83
2023/02/08 14:51:22;;;;;;;8.07;1.38;;;;;;;;;;5074401;28;20060;-75
2023/02/08 14:53:53;;;;;;;4.78;2.58;;;;;;;;;;5076738;28;20070;-76
2023/02/08 14:56:22;;;;;;;1.40;0.88;;;;;;;;;;5075176;28;20484;-77
2023/02/08 14:58:51;;;;;;;2.15;1.75;;;;;;;;;;5074512;28;20420;-75
2023/02/08 15:01:21;;;;;;;7.25;1.77;;;;;;;;;;5072207;28;20076;-75
2023/02/08 15:03:54;;;;;;;12.48;2.45;;;;;;;;;;5072374;28;20125;-79
2023/02/08 15:06:37;;;;;;;0.68;0.68;;;;;;;;;;5072875;28;20036;-75
2023/02/08 15:09:06;;;;;;;1.27;0.60;;;;;;;;;;5065947;28;20043;-77